Time;durP1;ratioP1;P1;durP2;ratioP2;P2;SDS_P1;SDS_P2;PMS_P1;PMS_P2;Temp;Humidity;BMP_temperature;BMP_pressure;BME280_temperature;BME280_humidity;BME280_pressure;Samples;Min_cycle;Max_cycle;Signal;HPM_P1;HPM_P2
2023/07/20 00:02:07;;;;;;;6.82;4.00;;;;;;;-142.75;100.00;76255.34;5068107;28;20044;-62
2023/07/20 00:04:32;;;;;;;5.60;3.53;;;;;;;-142.75;100.00;76251.41;5087262;28;20020;-60
2023/07/20 00:06:59;;;;;;;5.25;3.58;;;;;;;-142.75;100.00;76271.09;5087115;28;20020;-61
2023/07/20 00:09:24;;;;;;;7.10;3.90;;;;;;;-142.75;100.00;76263.22;5087826;28;20020;-61
2023/07/20 00:11:51;;;;;;;6.97;4.25;;;;;;;-142.75;100.00;76267.16;5088245;28;20024;-61
2023/07/20 00:14:18;;;;;;;6.93;4.05;;;;;;;-142.75;100.00;76259.28;5087698;28;20028;-61
2023/07/20 00:16:43;;;;;;;8.50;4.05;;;;;;;-142.75;100.00;76247.47;5087812;28;20024;-59
2023/07/20 00:19:10;;;;;;;9.18;4.50;;;;;;;-142.75;100.00;76239.59;5088284;28;20397;-59
2023/07/20 00:21:36;;;;;;;11.93;4.38;;;;;;;-142.75;100.00;76245.50;5087827;28;20028;-62
2023/07/20 00:24:01;;;;;;;9.80;4.05;;;;;;;-142.75;100.00;76251.41;5068247;28;20057;-61
2023/07/20 00:26:26;;;;;;;9.13;5.20;;;;;;;-142.75;100.00;76251.41;5075504;28;20016;-62
2023/07/20 00:28:51;;;;;;;8.38;5.03;;;;;;;-142.75;100.00;76235.66;5079905;28;20066;-61
2023/07/20 00:31:17;;;;;;;7.95;4.82;;;;;;;-142.75;100.00;76233.69;5067111;28;20031;-61
2023/07/20 00:33:42;;;;;;;9.05;5.20;;;;;;;-142.75;100.00;76229.75;5067576;28;20035;-61
2023/07/20 00:36:08;;;;;;;9.63;5.28;;;;;;;-142.75;100.00;76247.47;5067445;28;20047;-61
2023/07/20 00:38:33;;;;;;;8.43;5.72;;;;;;;-142.75;100.00;76217.94;5067704;28;20028;-60
2023/07/20 00:40:58;;;;;;;12.02;6.32;;;;;;;-142.75;100.00;76225.81;5067241;28;20499;-60
2023/07/20 00:43:24;;;;;;;10.50;6.40;;;;;;;-142.75;100.00;76231.72;5067359;28;20071;-60
2023/07/20 00:45:49;;;;;;;10.65;6.05;;;;;;;-142.75;100.00;76247.47;5067452;28;20029;-61
2023/07/20 00:48:15;;;;;;;11.45;5.40;;;;;;;-142.75;100.00;76255.34;5067618;28;20027;-61
2023/07/20 00:50:41;;;;;;;6.40;3.50;;;;;;;-142.75;100.00;76257.31;5066806;28;20032;-61
2023/07/20 00:53:07;;;;;;;6.18;4.18;;;;;;;-142.75;100.00;76253.38;5067769;28;20074;-59
2023/07/20 00:55:33;;;;;;;5.13;3.25;;;;;;;-142.75;100.00;76271.09;5067300;28;20613;-60
2023/07/20 00:57:59;;;;;;;5.68;2.88;;;;;;;-142.75;100.00;76255.34;5067087;28;20024;-62
2023/07/20 01:00:25;;;;;;;5.00;3.03;;;;;;;-142.75;100.00;76265.19;5066423;28;20111;-59
2023/07/20 01:02:51;;;;;;;5.68;2.60;;;;;;;-142.75;100.00;76261.25;5066982;28;20636;-59
2023/07/20 01:05:17;;;;;;;6.07;2.58;;;;;;;-142.75;100.00;76265.19;5069333;28;20070;-61
2023/07/20 01:07:56;;;;;;;5.75;2.75;;;;;;;-142.75;100.00;76278.97;5087100;28;20016;-61
2023/07/20 01:10:41;;;;;;;4.93;2.55;;;;;;;-142.75;100.00;76267.16;5086830;28;20024;-60
2023/07/20 01:13:09;;;;;;;5.60;2.83;;;;;;;-142.75;100.00;76284.88;5086949;28;20521;-61
2023/07/20 01:15:35;;;;;;;4.88;2.08;;;;;;;-142.75;100.00;76304.56;5067705;28;20278;-62
2023/07/20 01:18:01;;;;;;;3.85;2.10;;;;;;;-142.75;100.00;76286.84;5067115;28;20050;-60
2023/07/20 01:20:28;;;;;;;3.83;1.92;;;;;;;-142.75;100.00;76298.66;5066735;28;20031;-61
2023/07/20 01:23:08;;;;;;;4.25;1.73;;;;;;;-142.75;100.00;76296.69;5067124;28;20437;-60
2023/07/20 01:25:58;;;;;;;4.65;1.92;;;;;;;-142.75;100.00;76292.75;5066868;28;20117;-61
2023/07/20 01:28:44;;;;;;;4.70;1.95;;;;;;;-142.75;100.00;76300.63;5073377;28;20593;-60
2023/07/20 01:31:25;;;;;;;;;;;;;;;-142.75;100.00;76298.66;5066635;28;20028;-61
2023/07/20 01:33:55;;;;;;;3.75;1.90;;;;;;;-142.75;100.00;76300.63;5066530;28;20389;-60
2023/07/20 01:36:23;;;;;;;6.70;1.95;;;;;;;-142.75;100.00;76312.44;5066848;28;20021;-61
2023/07/20 01:38:49;;;;;;;3.83;1.90;;;;;;;-142.75;100.00;76326.22;5066497;28;20028;-61
2023/07/20 01:41:15;;;;;;;3.35;1.67;;;;;;;-142.75;100.00;76324.25;5066212;28;20564;-60
2023/07/20 01:43:40;;;;;;;7.80;2.40;;;;;;;-142.75;100.00;76326.22;5066284;28;20025;-61
2023/07/20 01:46:06;;;;;;;2.30;1.52;;;;;;;-142.75;100.00;76334.09;5066639;28;20025;-61
2023/07/20 01:48:31;;;;;;;4.40;1.88;;;;;;;-142.75;100.00;76340.00;5067041;28;20028;-61
2023/07/20 01:50:57;;;;;;;2.97;1.20;;;;;;;-142.75;100.00;76377.38;5067581;28;20109;-61
2023/07/20 01:53:22;;;;;;;2.58;1.45;;;;;;;-142.75;100.00;76393.13;5065698;28;20505;-60
2023/07/20 01:55:47;;;;;;;3.42;1.42;;;;;;;-142.75;100.00;76408.88;5066320;28;20025;-61
2023/07/20 01:58:13;;;;;;;4.28;1.90;;;;;;;-142.75;100.00;76402.97;5066370;28;20090;-60
2023/07/20 02:00:38;;;;;;;3.33;1.67;;;;;;;-142.75;100.00;76410.84;5065988;28;20032;-59
2023/07/20 02:03:04;;;;;;;2.83;1.75;;;;;;;-142.75;100.00;76410.84;5066294;28;20025;-59
2023/07/20 02:05:29;;;;;;;3.08;1.60;;;;;;;-142.75;100.00;76426.59;5066553;28;20423;-61
2023/07/20 02:07:55;;;;;;;3.45;1.88;;;;;;;-142.75;100.00;76426.59;5066250;28;20035;-58
2023/07/20 02:10:20;;;;;;;3.65;2.13;;;;;;;-142.75;100.00;76420.69;5065627;28;20479;-61
2023/07/20 02:12:46;;;;;;;5.68;2.30;;;;;;;-142.75;100.00;76418.72;5066372;28;20020;-61
2023/07/20 02:15:13;;;;;;;7.13;2.13;;;;;;;-142.75;100.00;76428.56;5066341;28;20620;-60
2023/07/20 02:17:40;;;;;;;8.25;2.40;;;;;;;-142.75;100.00;76432.50;5066156;28;20577;-60
2023/07/20 02:20:08;;;;;;;4.05;1.90;;;;;;;-142.75;100.00;76434.47;5085099;28;20395;-61
2023/07/20 02:22:34;;;;;;;4.60;2.00;;;;;;;-142.75;100.00;76442.34;5086741;28;20024;-60
2023/07/20 02:24:59;;;;;;;3.75;1.90;;;;;;;-142.75;100.00;76438.41;5085535;28;20093;-59
2023/07/20 02:27:24;;;;;;;4.20;2.03;;;;;;;-142.75;100.00;76440.38;5086039;28;20039;-59
2023/07/20 02:29:50;;;;;;;5.53;2.55;;;;;;;-142.75;100.00;76432.50;5085880;28;20028;-58
2023/07/20 02:32:15;;;;;;;4.85;2.88;;;;;;;-142.75;100.00;76432.50;5086351;28;20028;-58
2023/07/20 02:34:41;;;;;;;4.90;2.97;;;;;;;-142.75;100.00;76424.63;5086113;28;20125;-60
2023/07/20 02:37:06;;;;;;;6.38;2.83;;;;;;;-142.75;100.00;76442.34;5086030;28;20020;-60
2023/07/20 02:39:32;;;;;;;7.82;2.30;;;;;;;-142.75;100.00;76436.44;5085750;28;20035;-59
2023/07/20 02:41:57;;;;;;;4.43;2.70;;;;;;;-142.75;100.00;76432.50;5088380;28;20024;-61
2023/07/20 02:44:23;;;;;;;4.05;2.75;;;;;;;-142.75;100.00;76434.47;5089862;28;20399;-61
2023/07/20 02:46:49;;;;;;;5.28;2.80;;;;;;;-142.75;100.00;76436.44;5089739;28;20032;-60
2023/07/20 02:49:15;;;;;;;5.18;3.00;;;;;;;-142.75;100.00;76432.50;5089990;28;20042;-60
2023/07/20 02:51:41;;;;;;;4.05;2.60;;;;;;;-142.75;100.00;76428.56;5089368;28;20032;-61
2023/07/20 02:54:06;;;;;;;5.40;2.95;;;;;;;-142.75;100.00;76434.47;5088827;28;20020;-60
2023/07/20 02:56:31;;;;;;;5.75;3.15;;;;;;;-142.75;100.00;76442.34;5089408;28;20033;-60
2023/07/20 02:58:57;;;;;;;5.28;2.95;;;;;;;-142.75;100.00;76444.31;5089312;28;20035;-60
2023/07/20 03:01:22;;;;;;;5.53;2.67;;;;;;;-142.75;100.00;76444.31;5089231;28;20081;-60
2023/07/20 03:03:48;;;;;;;5.05;2.65;;;;;;;-142.75;100.00;76454.16;5089420;28;20028;-61
2023/07/20 03:06:14;;;;;;;4.13;2.33;;;;;;;-142.75;100.00;76467.94;5089209;28;20107;-61
2023/07/20 03:08:41;;;;;;;4.03;2.63;;;;;;;-142.75;100.00;76479.75;5089416;28;20020;-60
2023/07/20 03:11:06;;;;;;;5.85;2.70;;;;;;;-142.75;100.00;76491.56;5089011;28;20023;-60
2023/07/20 03:13:32;;;;;;;4.60;3.35;;;;;;;-142.75;100.00;76495.50;5089451;28;20023;-61
2023/07/20 03:15:57;;;;;;;19.95;3.60;;;;;;;-142.75;100.00;76503.38;5089056;28;20020;-59
2023/07/20 03:18:22;;;;;;;5.63;2.95;;;;;;;-142.75;100.00;76501.41;5076642;28;20025;-59
2023/07/20 03:20:48;;;;;;;4.20;2.47;;;;;;;-142.75;100.00;76505.34;5069124;28;20063;-59
2023/07/20 03:23:15;;;;;;;4.22;2.58;;;;;;;-142.75;100.00;76511.25;5069273;28;20626;-60
2023/07/20 03:25:40;;;;;;;5.72;2.80;;;;;;;-142.75;100.00;76505.34;5067635;28;20024;-59
2023/07/20 03:28:05;;;;;;;4.20;2.75;;;;;;;-142.75;100.00;76509.28;5068793;28;20530;-55
2023/07/20 03:30:31;;;;;;;6.82;2.58;;;;;;;-142.75;100.00;76503.38;5068499;28;20395;-60
2023/07/20 03:32:56;;;;;;;6.75;2.80;;;;;;;-142.75;100.00;76497.47;5072337;28;20020;-60
2023/07/20 03:35:22;;;;;;;5.20;2.90;;;;;;;-142.75;100.00;76487.63;5089110;28;20103;-60
2023/07/20 03:37:47;;;;;;;4.78;3.13;;;;;;;-142.75;100.00;76491.56;5089038;28;20095;-60
2023/07/20 03:40:14;;;;;;;4.38;2.70;;;;;;;-142.75;100.00;76477.78;5088455;28;20028;-60
2023/07/20 03:42:39;;;;;;;5.95;2.80;;;;;;;-142.75;100.00;76471.88;5088675;28;20012;-60
2023/07/20 03:45:06;;;;;;;3.88;2.50;;;;;;;-142.75;100.00;76464.00;5088598;28;20077;-59
2023/07/20 03:47:31;;;;;;;4.15;2.28;;;;;;;-142.75;100.00;76464.00;5078125;28;20021;-60
2023/07/20 03:49:57;;;;;;;4.45;2.42;;;;;;;-142.75;100.00;76469.91;5068775;28;22556;-59
2023/07/20 03:52:23;;;;;;;6.43;2.38;;;;;;;-142.75;100.00;76483.69;5067914;28;20434;-59
2023/07/20 03:54:48;;;;;;;2.70;1.70;;;;;;;-142.75;100.00;76483.69;5068890;28;20501;-60
2023/07/20 03:57:13;;;;;;;2.92;1.83;;;;;;;-142.75;100.00;76503.38;5068335;28;20100;-58
2023/07/20 03:59:39;;;;;;;2.78;1.73;;;;;;;-142.75;100.00;76513.22;5081656;28;20024;-58
2023/07/20 04:02:05;;;;;;;3.30;1.83;;;;;;;-142.75;100.00;76528.97;5088404;28;20038;-62
2023/07/20 04:04:31;;;;;;;3.05;1.63;;;;;;;-142.75;100.00;76530.91;5088373;28;20046;-58
2023/07/20 04:06:56;;;;;;;3.17;1.83;;;;;;;-142.75;100.00;76542.72;5088227;28;20028;-60
2023/07/20 04:09:22;;;;;;;2.78;1.33;;;;;;;-142.75;100.00;76544.69;5077426;28;20024;-60
2023/07/20 04:11:47;;;;;;;5.35;1.38;;;;;;;-142.75;100.00;76554.53;5068402;28;20393;-59
2023/07/20 04:14:12;;;;;;;3.35;1.65;;;;;;;-142.75;100.00;76554.53;5067980;28;20025;-60
2023/07/20 04:16:38;;;;;;;3.38;1.88;;;;;;;-142.75;100.00;76550.59;5068530;28;20115;-59
2023/07/20 04:19:03;;;;;;;4.40;2.05;;;;;;;-142.75;100.00;76550.59;5077592;28;20052;-61
2023/07/20 04:21:29;;;;;;;4.85;2.08;;;;;;;-142.75;100.00;76532.88;5068187;28;20369;-60
2023/07/20 04:23:54;;;;;;;4.25;2.35;;;;;;;-142.75;100.00;76519.13;5073604;28;20028;-61
2023/07/20 04:26:20;;;;;;;3.53;1.73;;;;;;;-142.75;100.00;76503.38;5087937;28;20020;-61
2023/07/20 04:28:45;;;;;;;3.45;2.20;;;;;;;-142.75;100.00;76483.69;5088112;28;20032;-60
2023/07/20 04:31:12;;;;;;;3.30;1.90;;;;;;;-142.75;100.00;76467.94;5087304;28;20111;-61
2023/07/20 04:33:37;;;;;;;3.03;2.03;;;;;;;-142.75;100.00;76464.00;5087744;28;20063;-60
2023/07/20 04:36:03;;;;;;;4.80;1.65;;;;;;;-142.75;100.00;76452.19;5087809;28;20111;-61
2023/07/20 04:38:28;;;;;;;2.70;1.83;;;;;;;-142.75;100.00;76454.16;5070831;28;20082;-61
2023/07/20 04:40:53;;;;;;;3.78;2.00;;;;;;;-142.75;100.00;76442.34;5067228;28;20688;-61
2023/07/20 04:43:19;;;;;;;3.88;1.75;;;;;;;-142.75;100.00;76442.34;5067647;28;20058;-61
2023/07/20 04:45:45;;;;;;;4.05;1.85;;;;;;;-142.75;100.00;76440.38;5075339;28;20024;-61
2023/07/20 04:48:12;;;;;;;3.22;2.17;;;;;;;-142.75;100.00;76432.50;5087477;28;20035;-60
2023/07/20 04:50:39;;;;;;;4.28;1.67;;;;;;;-142.75;100.00;76422.66;5087622;28;20024;-60
2023/07/20 04:53:05;;;;;;;3.13;2.00;;;;;;;-142.75;100.00;76416.75;5087463;28;20095;-60
2023/07/20 04:55:30;;;;;;;5.05;2.00;;;;;;;-142.75;100.00;76389.19;5087703;28;20161;-61
2023/07/20 04:57:56;;;;;;;4.10;1.85;;;;;;;-142.75;100.00;76369.50;5087846;28;20258;-60
2023/07/20 05:00:21;;;;;;;3.45;2.10;;;;;;;-142.75;100.00;76341.97;5086820;28;20024;-60
2023/07/20 05:02:48;;;;;;;3.83;1.60;;;;;;;-142.75;100.00;76326.22;5086627;28;20032;-61
2023/07/20 05:05:15;;;;;;;4.05;1.70;;;;;;;-142.75;100.00;76316.38;5086691;28;20028;-61
2023/07/20 05:07:40;;;;;;;3.10;1.90;;;;;;;-142.75;100.00;76306.53;5087057;28;20100;-60
2023/07/20 05:10:06;;;;;;;6.95;1.70;;;;;;;-142.75;100.00;76302.59;5086712;28;20582;-60
2023/07/20 05:12:31;;;;;;;3.42;1.65;;;;;;;-142.75;100.00;76298.66;5087047;28;20495;-61
2023/07/20 05:14:57;;;;;;;2.70;1.40;;;;;;;-142.75;100.00;76278.97;5086843;28;20103;-61
2023/07/20 05:17:22;;;;;;;2.90;1.63;;;;;;;-142.75;100.00;76261.25;5087034;28;20020;-61
2023/07/20 05:19:47;;;;;;;2.95;0.90;;;;;;;-142.75;100.00;76243.53;5085137;28;20016;-61
2023/07/20 05:22:16;;;;;;;1.80;0.98;;;;;;;-142.75;100.00;76223.84;5066723;28;20056;-61
2023/07/20 05:24:42;;;;;;;2.17;1.20;;;;;;;-142.75;100.00;76235.66;5067246;28;20052;-61
2023/07/20 05:27:07;;;;;;;4.93;1.08;;;;;;;-142.75;100.00;76227.78;5066741;28;20047;-61
2023/07/20 05:29:33;;;;;;;3.40;1.13;;;;;;;-142.75;100.00;76231.72;5074381;28;20128;-61
2023/07/20 05:31:58;;;;;;;3.17;1.00;;;;;;;-142.75;100.00;76239.59;5086719;28;20035;-61
2023/07/20 05:34:23;;;;;;;1.98;1.10;;;;;;;-142.75;100.00;76219.91;5086660;28;20035;-61
2023/07/20 05:36:49;;;;;;;3.75;1.00;;;;;;;-142.75;100.00;76255.34;5086367;28;20028;-61
2023/07/20 05:39:17;;;;;;;3.13;1.10;;;;;;;-142.75;100.00;76221.88;5086446;28;20030;-61
2023/07/20 05:41:42;;;;;;;2.70;0.88;;;;;;;-142.75;100.00;76214.00;5086226;28;20039;-58
2023/07/20 05:44:07;;;;;;;1.65;0.77;;;;;;;-142.75;100.00;76225.81;5086475;28;20036;-59
2023/07/20 05:46:32;;;;;;;2.72;1.02;;;;;;;-142.75;100.00;76227.78;5086634;28;20036;-60
2023/07/20 05:48:58;;;;;;;4.30;1.00;;;;;;;-142.75;100.00;76231.72;5086747;28;20035;-60
2023/07/20 05:51:23;;;;;;;3.42;1.10;;;;;;;-142.75;100.00;76225.81;5086395;28;20034;-61
2023/07/20 05:53:48;;;;;;;2.65;1.20;;;;;;;-142.75;100.00;76227.78;5074777;28;20028;-60
2023/07/20 05:56:14;;;;;;;3.55;1.17;;;;;;;-142.75;100.00;76223.84;5066237;28;20067;-60
2023/07/20 05:58:39;;;;;;;2.25;1.17;;;;;;;-142.75;100.00;76208.09;5066464;28;20036;-60
2023/07/20 06:01:07;;;;;;;5.10;1.33;;;;;;;-142.75;100.00;76219.91;5065932;28;20095;-60
2023/07/20 06:03:34;;;;;;;2.45;1.20;;;;;;;-142.75;100.00;76227.78;5066286;28;20082;-61
2023/07/20 06:06:00;;;;;;;5.43;1.80;;;;;;;-142.75;100.00;76249.44;5066248;28;20050;-58
2023/07/20 06:08:26;;;;;;;6.03;1.90;;;;;;;-142.75;100.00;76247.47;5066090;28;20031;-60
2023/07/20 06:10:52;;;;;;;4.03;1.55;;;;;;;-142.75;100.00;76241.56;5066372;28;20025;-61
2023/07/20 06:13:17;;;;;;;2.78;1.30;;;;;;;-142.75;100.00;76241.56;5066159;28;20488;-61
2023/07/20 06:15:43;;;;;;;2.08;1.23;;;;;;;-142.75;100.00;76233.69;5069042;28;20472;-58
2023/07/20 06:18:08;;;;;;;4.25;1.67;;;;;;;-142.75;100.00;76243.53;5070280;28;20031;-60
2023/07/20 06:20:34;;;;;;;3.22;1.27;;;;;;;-142.75;100.00;76231.72;5079797;28;20081;-59
2023/07/20 06:23:00;;;;;;;2.88;1.10;;;;;;;-142.75;100.00;76239.59;5090369;28;20077;-60
2023/07/20 06:25:25;;;;;;;3.08;1.27;;;;;;;-142.75;100.00;76251.41;5090563;28;20671;-59
2023/07/20 06:27:53;;;;;;;3.13;1.10;;;;;;;-142.75;100.00;76255.34;5086081;28;20024;-61
2023/07/20 06:30:19;;;;;;;2.80;0.93;;;;;;;-142.75;100.00;76263.22;5073454;28;20073;-59
2023/07/20 06:32:45;;;;;;;1.95;1.05;;;;;;;-142.75;100.00;76271.09;5069923;28;20067;-61
2023/07/20 06:35:10;;;;;;;4.72;1.13;;;;;;;-142.75;100.00;76294.72;5069816;28;20031;-59
2023/07/20 06:37:35;;;;;;;1.05;0.70;;;;;;;-142.75;100.00;76277.00;5070768;28;20055;-61
2023/07/20 06:40:04;;;;;;;1.50;0.80;;;;;;;-142.75;100.00;76298.66;5074783;28;20077;-61
2023/07/20 06:42:31;;;;;;;1.23;0.68;;;;;;;-142.75;100.00;76269.13;5072058;28;20582;-61
2023/07/20 06:44:56;;;;;;;2.45;0.77;;;;;;;-142.75;100.00;76269.13;5073587;28;20029;-62
2023/07/20 06:47:22;;;;;;;1.48;0.80;;;;;;;-142.75;100.00;76249.44;5078840;28;20072;-61
2023/07/20 06:49:48;;;;;;;1.20;0.60;;;;;;;-142.75;100.00;76263.22;5078163;28;20028;-61
2023/07/20 06:52:13;;;;;;;1.88;0.60;;;;;;;-142.75;100.00;76229.75;5087707;28;20032;-61
2023/07/20 06:54:38;;;;;;;1.58;0.60;;;;;;;-142.75;100.00;76257.31;5079244;28;20093;-61
2023/07/20 06:57:04;;;;;;;2.35;0.80;;;;;;;-142.75;100.00;76247.47;5084842;28;20098;-61
2023/07/20 06:59:30;;;;;;;1.60;0.73;;;;;;;-142.75;100.00;76341.97;5080385;28;20023;-61
2023/07/20 07:01:55;;;;;;;3.42;0.65;;;;;;;-142.75;100.00;76312.44;5075213;28;20514;-61
2023/07/20 07:04:21;;;;;;;1.42;0.60;;;;;;;-142.75;100.00;76290.78;5073227;28;20143;-61
2023/07/20 07:06:46;;;;;;;1.42;0.70;;;;;;;-142.75;100.00;76282.91;5079566;28;20020;-61
2023/07/20 07:09:12;;;;;;;3.10;0.65;;;;;;;-142.75;100.00;76271.09;5083191;28;20032;-61
2023/07/20 07:11:37;;;;;;;2.10;0.80;;;;;;;-142.75;100.00;76251.41;5079975;28;20498;-62
2023/07/20 07:14:02;;;;;;;2.53;0.73;;;;;;;-142.75;100.00;76286.84;5070189;28;20027;-61
2023/07/20 07:16:28;;;;;;;1.77;0.55;;;;;;;-142.75;100.00;76251.41;5068987;28;20032;-61
2023/07/20 07:18:53;;;;;;;3.33;0.70;;;;;;;-142.75;100.00;76223.84;5075317;28;20024;-60
2023/07/20 07:21:19;;;;;;;1.30;0.50;;;;;;;-142.75;100.00;76204.16;5074993;28;20055;-62
2023/07/20 07:23:45;;;;;;;1.90;0.60;;;;;;;-142.75;100.00;76196.31;5076227;28;20043;-61
2023/07/20 07:26:10;;;;;;;2.03;0.70;;;;;;;-142.75;100.00;76225.81;5069073;28;20020;-61
2023/07/20 07:28:36;;;;;;;1.00;0.52;;;;;;;-142.75;100.00;76186.47;5069247;28;20043;-61
2023/07/20 07:31:05;;;;;;;2.03;0.98;;;;;;;-142.75;100.00;76154.97;5069077;28;20112;-62
2023/07/20 07:33:30;;;;;;;1.52;0.60;;;;;;;-142.75;100.00;76147.09;5069496;28;20016;-62
2023/07/20 07:35:56;;;;;;;2.08;0.80;;;;;;;-142.75;100.00;76160.88;5069202;28;20479;-62
2023/07/20 07:38:21;;;;;;;2.83;0.70;;;;;;;-142.75;100.00;76135.28;5071200;28;20032;-62
2023/07/20 07:40:46;;;;;;;1.83;0.70;;;;;;;-142.75;100.00;76101.81;5069743;28;20024;-61
2023/07/20 07:43:13;;;;;;;1.95;0.77;;;;;;;-142.75;100.00;76121.50;5069803;28;20028;-62
2023/07/20 07:45:40;;;;;;;1.25;0.60;;;;;;;-142.75;100.00;76074.25;5077891;28;20050;-62
2023/07/20 07:48:06;;;;;;;2.28;0.70;;;;;;;-142.75;100.00;76097.88;5088563;28;20028;-62
2023/07/20 07:50:32;;;;;;;1.58;0.50;;;;;;;-142.75;100.00;76101.81;5082590;28;20068;-61
2023/07/20 07:52:57;;;;;;;4.53;0.70;;;;;;;-142.75;100.00;76154.97;5073510;28;20040;-61
2023/07/20 07:55:24;;;;;;;1.23;0.60;;;;;;;-142.75;100.00;76135.28;5072117;28;20038;-61
2023/07/20 07:57:51;;;;;;;1.40;0.63;;;;;;;-142.75;100.00;76186.47;5070688;28;20402;-59
2023/07/20 08:00:18;;;;;;;1.65;0.68;;;;;;;-142.75;100.00;76125.44;5065602;28;20028;-62
2023/07/20 08:02:44;;;;;;;2.13;0.90;;;;;;;-142.75;100.00;76105.75;5068709;28;20593;-62
2023/07/20 08:05:10;;;;;;;1.85;0.75;;;;;;;-142.75;100.00;76109.69;5070167;28;20024;-61
2023/07/20 08:07:36;;;;;;;1.48;0.65;;;;;;;-142.75;100.00;76093.94;5069041;28;20028;-62
2023/07/20 08:10:02;;;;;;;2.13;0.80;;;;;;;-142.75;100.00;76101.81;5068482;28;20020;-61
2023/07/20 08:12:27;;;;;;;1.88;1.02;;;;;;;-142.75;100.00;76034.91;5068657;28;20032;-61
2023/07/20 08:14:53;;;;;;;2.78;0.90;;;;;;;-142.75;100.00;76011.28;5088733;28;20016;-62
2023/07/20 08:17:18;;;;;;;2.05;0.95;;;;;;;-142.75;100.00;75995.53;5088745;28;20054;-61
2023/07/20 08:19:46;;;;;;;1.20;0.60;;;;;;;-142.75;100.00;75971.91;5086984;28;20537;-61
2023/07/20 08:22:12;;;;;;;4.45;0.60;;;;;;;-142.75;100.00;75956.19;5086901;28;20070;-61
2023/07/20 08:24:40;;;;;;;1.67;0.60;;;;;;;-142.75;100.00;75954.22;5087827;28;20027;-60
2023/07/20 08:27:06;;;;;;;3.47;0.80;;;;;;;-142.75;100.00;75966.00;5088386;28;20027;-59
2023/07/20 08:29:31;;;;;;;1.60;0.70;;;;;;;-142.75;100.00;75934.53;5088222;28;20027;-61
2023/07/20 08:31:56;;;;;;;1.27;0.60;;;;;;;-142.75;100.00;75897.13;5088373;28;20103;-61
2023/07/20 08:34:22;;;;;;;2.78;0.60;;;;;;;-142.75;100.00;75869.56;5088391;28;20060;-61
2023/07/20 08:36:47;;;;;;;2.03;0.80;;;;;;;-142.75;100.00;75885.31;5088105;28;20108;-61
2023/07/20 08:39:12;;;;;;;1.95;0.60;;;;;;;-142.75;100.00;75954.22;5088064;28;20071;-60
2023/07/20 08:41:39;;;;;;;1.42;0.70;;;;;;;-142.75;100.00;75924.69;5087609;28;20024;-60
2023/07/20 08:44:05;;;;;;;1.17;0.50;;;;;;;-142.75;100.00;75912.88;5075518;28;20052;-60
2023/07/20 08:46:31;;;;;;;1.98;0.90;;;;;;;-142.75;100.00;75960.13;5069507;28;20481;-60
2023/07/20 08:48:58;;;;;;;1.30;0.50;;;;;;;-142.75;100.00;75993.56;5072432;28;20023;-60
2023/07/20 08:51:24;;;;;;;1.80;0.70;;;;;;;-142.75;100.00;75956.19;5076558;28;20476;-60
2023/07/20 08:53:51;;;;;;;2.42;0.50;;;;;;;-142.75;100.00;75979.78;5074268;28;20051;-60
2023/07/20 08:56:17;;;;;;;2.78;0.70;;;;;;;-142.75;100.00;75983.72;5070647;28;20024;-58
2023/07/20 08:58:43;;;;;;;1.42;0.77;;;;;;;-142.75;100.00;76003.41;5074863;28;20050;-61
2023/07/20 09:01:10;;;;;;;1.48;0.60;;;;;;;-142.75;100.00;76062.47;5074372;28;20486;-60
2023/07/20 09:03:39;;;;;;;2.00;0.70;;;;;;;-142.75;100.00;76034.91;5069062;28;20060;-61
2023/07/20 09:06:05;;;;;;;1.95;0.70;;;;;;;-142.75;100.00;76056.56;5067749;28;20066;-60
2023/07/20 09:08:31;;;;;;;2.58;0.50;;;;;;;-142.75;100.00;76062.47;5066354;28;20539;-60
2023/07/20 09:10:56;;;;;;;4.18;0.73;;;;;;;-142.75;100.00;76086.06;5066791;28;20031;-61
2023/07/20 09:13:22;;;;;;;3.45;0.85;;;;;;;-142.75;100.00;76078.19;5067553;28;20016;-58
2023/07/20 09:15:48;;;;;;;1.75;0.80;;;;;;;-142.75;100.00;76093.94;5067422;28;20028;-61
2023/07/20 09:18:23;;;;;;;2.13;0.60;;;;;;;-142.75;100.00;76119.53;5067031;28;20029;-60
2023/07/20 09:20:49;;;;;;;1.45;0.80;;;;;;;-142.75;100.00;76164.81;5067513;28;20025;-60
2023/07/20 09:23:14;;;;;;;1.73;0.70;;;;;;;-142.75;100.00;76149.06;5067381;28;20039;-59
2023/07/20 09:25:40;;;;;;;2.85;0.88;;;;;;;-142.75;100.00;76141.19;5067630;28;20064;-61
2023/07/20 09:28:06;;;;;;;2.88;0.73;;;;;;;-142.75;100.00;76135.28;5067097;28;20029;-61
2023/07/20 09:30:31;;;;;;;2.15;0.80;;;;;;;-142.75;100.00;76129.38;5066892;28;20047;-61
2023/07/20 09:32:56;;;;;;;2.33;1.00;;;;;;;-142.75;100.00;76090.00;5067240;28;20028;-61
2023/07/20 09:35:22;;;;;;;3.80;1.20;;;;;;;-142.75;100.00;76038.84;5067236;28;20024;-61
2023/07/20 09:38:02;;;;;;;2.75;1.17;;;;;;;-142.75;100.00;75999.47;5066757;28;20025;-61
2023/07/20 09:40:27;;;;;;;1.55;0.80;;;;;;;-142.75;100.00;75967.97;5067762;28;20475;-62
2023/07/20 09:43:00;;;;;;;1.90;0.80;;;;;;;-142.75;100.00;75956.19;5066849;28;20027;-60
2023/07/20 09:45:42;;;;;;;1.38;0.93;;;;;;;-142.75;100.00;75991.59;5068329;28;20040;-62
2023/07/20 09:48:08;;;;;;;3.83;0.80;;;;;;;-142.75;100.00;76009.31;5080415;28;20020;-59
2023/07/20 09:50:38;;;;;;;2.03;0.77;;;;;;;-142.75;100.00;75991.59;5075967;28;20111;-61
2023/07/20 09:53:04;;;;;;;2.92;0.90;;;;;;;-142.75;100.00;75981.75;5069326;28;20519;-62
2023/07/20 09:55:31;;;;;;;1.45;0.60;;;;;;;-142.75;100.00;75926.66;5070710;28;20027;-62
2023/07/20 09:57:56;;;;;;;2.60;0.80;;;;;;;-142.75;100.00;75920.75;5073079;28;20109;-61
2023/07/20 10:00:22;;;;;;;2.15;0.93;;;;;;;-142.75;100.00;75877.44;5069280;28;20064;-62
2023/07/20 10:02:51;;;;;;;1.83;1.00;;;;;;;-142.75;100.00;75914.84;5067340;28;20035;-61
2023/07/20 10:05:17;;;;;;;4.15;1.20;;;;;;;-142.75;100.00;75948.31;5067149;28;20067;-62
2023/07/20 10:07:48;;;;;;;1.98;0.85;;;;;;;-142.75;100.00;75979.78;5065051;28;20051;-61
2023/07/20 10:10:19;;;;;;;2.55;1.30;;;;;;;-142.75;100.00;75971.91;5065261;28;20063;-61
2023/07/20 10:12:47;;;;;;;2.75;1.15;;;;;;;-142.75;100.00;75956.19;5067021;28;20017;-62
2023/07/20 10:15:22;;;;;;;2.70;1.10;;;;;;;-142.75;100.00;75926.66;5065951;28;20512;-61
2023/07/20 10:18:14;;;;;;;2.20;0.95;;;;;;;-142.75;100.00;75916.81;5067111;28;20115;-60
2023/07/20 10:20:43;;;;;;;1.70;0.88;;;;;;;-142.75;100.00;75928.63;5067606;28;20040;-61
2023/07/20 10:23:09;;;;;;;2.67;0.80;;;;;;;-142.75;100.00;76013.25;5067513;28;20025;-62
2023/07/20 10:25:38;;;;;;;3.10;1.02;;;;;;;-142.75;100.00;75962.09;5086100;28;20073;-62
2023/07/20 10:28:07;;;;;;;3.17;0.90;;;;;;;-142.75;100.00;75956.19;5087484;28;20087;-61
2023/07/20 10:30:36;;;;;;;3.13;1.30;;;;;;;-142.75;100.00;75964.03;5087052;28;20024;-61
2023/07/20 10:33:03;;;;;;;2.08;1.05;;;;;;;-142.75;100.00;75997.50;5087356;28;20048;-61
2023/07/20 10:35:29;;;;;;;1.83;0.85;;;;;;;-142.75;100.00;76025.06;5087010;28;20032;-64
2023/07/20 10:38:00;;;;;;;2.53;0.98;;;;;;;-142.75;100.00;76038.84;5087719;28;20022;-62
2023/07/20 10:40:33;;;;;;;2.58;0.90;;;;;;;-142.75;100.00;75989.63;5084675;28;20107;-62
2023/07/20 10:43:07;;;;;;;1.70;0.90;;;;;;;-142.75;100.00;75979.78;5087245;28;20118;-60
2023/07/20 10:45:38;;;;;;;1.75;1.10;;;;;;;-142.75;100.00;75948.31;5087049;28;20111;-61
2023/07/20 10:48:05;;;;;;;3.78;1.08;;;;;;;-142.75;100.00;75940.44;5087029;28;20036;-62
2023/07/20 10:50:32;;;;;;;2.35;1.20;;;;;;;-142.75;100.00;75910.91;5087390;28;20107;-62
2023/07/20 10:53:24;;;;;;;2.45;1.10;;;;;;;-142.75;100.00;75910.91;5087137;28;20020;-60
2023/07/20 10:56:06;;;;;;;3.00;1.30;;;;;;;-142.75;100.00;75944.38;5087089;28;20032;-62
2023/07/20 10:58:31;;;;;;;1.95;1.25;;;;;;;-142.75;100.00;75905.00;5087351;28;20028;-62
2023/07/20 11:01:00;;;;;;;2.17;0.95;;;;;;;-142.75;100.00;75865.63;5087991;28;20133;-62
2023/07/20 11:03:40;;;;;;;3.28;1.05;;;;;;;-142.75;100.00;75851.88;5090125;28;20020;-62
2023/07/20 11:06:24;;;;;;;1.88;1.00;;;;;;;-142.75;100.00;75786.91;5090429;28;20630;-62
2023/07/20 11:08:55;;;;;;;1.63;0.90;;;;;;;-142.75;95.10;75767.22;5090184;28;20039;-62